createdAt,value
2017-10-18T00:01:28.488Z,77.30
2017-10-18T00:03:59.407Z,76.30
2017-10-18T00:06:28.538Z,76.20
2017-10-18T00:08:57.585Z,75.90
2017-10-18T00:11:26.425Z,76.10
2017-10-18T00:13:55.400Z,76.40
2017-10-18T00:16:24.521Z,76.30
2017-10-18T00:18:53.494Z,76.30
2017-10-18T00:21:22.200Z,76.30
2017-10-18T00:23:51.345Z,76.40
2017-10-18T00:26:20.239Z,76.60
2017-10-18T00:28:50.049Z,76.50
2017-10-18T00:31:18.836Z,76.40
2017-10-18T00:33:52.640Z,76.40
2017-10-18T00:36:22.251Z,76.10
2017-10-18T00:38:50.887Z,76.10
2017-10-18T00:41:19.836Z,76.10
2017-10-18T00:43:48.616Z,76.10
2017-10-18T00:46:18.736Z,75.50
2017-10-18T00:48:47.421Z,75.40
2017-10-18T00:51:16.925Z,75.40
2017-10-18T00:53:45.958Z,75.30
2017-10-18T00:56:14.810Z,76.40
2017-10-18T00:58:43.700Z,76.00
2017-10-18T01:01:12.802Z,75.80
2017-10-18T01:03:41.756Z,76.10
2017-10-18T01:06:11.722Z,75.90
2017-10-18T01:08:40.751Z,76.50
2017-10-18T01:11:09.701Z,75.50
2017-10-18T01:13:38.480Z,76.00
2017-10-18T01:16:07.474Z,75.90
2017-10-18T01:18:36.390Z,75.70
2017-10-18T01:21:05.153Z,75.70
2017-10-18T01:23:34.044Z,76.10
2017-10-18T01:26:02.935Z,76.60
2017-10-18T01:28:31.825Z,76.30
2017-10-18T01:31:01.641Z,76.50
2017-10-18T01:33:30.533Z,76.40
2017-10-18T01:35:59.578Z,76.30
2017-10-18T01:38:29.028Z,76.20
2017-10-18T01:40:58.352Z,76.10
2017-10-18T01:43:27.431Z,75.90
2017-10-18T01:45:56.220Z,75.90
2017-10-18T01:48:25.001Z,76.20
2017-10-18T01:50:53.703Z,76.30
2017-10-18T01:53:22.376Z,76.30
2017-10-18T01:55:51.269Z,76.60
2017-10-18T01:58:21.248Z,76.30
2017-10-18T02:00:51.002Z,76.40
2017-10-18T02:03:20.176Z,76.40
2017-10-18T02:05:49.188Z,76.40
2017-10-18T02:08:17.875Z,76.40
2017-10-18T02:10:46.666Z,76.80
2017-10-18T02:13:16.270Z,76.90
2017-10-18T02:15:45.061Z,76.80
2017-10-18T02:18:13.845Z,77.00
2017-10-18T02:20:42.533Z,77.20
2017-10-18T02:23:11.572Z,77.30
2017-10-18T02:25:40.525Z,77.20
2017-10-18T02:28:09.515Z,77.30
2017-10-18T02:30:38.919Z,77.50
2017-10-18T02:33:08.525Z,77.40
2017-10-18T02:35:37.519Z,77.50
2017-10-18T02:38:07.210Z,77.80
2017-10-18T02:40:36.126Z,77.40
2017-10-18T02:43:04.810Z,77.80
2017-10-18T02:45:33.612Z,77.60
2017-10-18T02:48:02.381Z,77.70
2017-10-18T02:50:31.526Z,77.30
2017-10-18T02:53:00.584Z,77.30
2017-10-18T02:55:29.521Z,77.40
2017-10-18T02:57:58.258Z,77.20
2017-10-18T03:00:27.394Z,77.30
2017-10-18T03:02:57.277Z,77.00
2017-10-18T03:05:26.065Z,77.00
2017-10-18T03:07:54.952Z,77.20
2017-10-18T03:10:23.841Z,77.30
2017-10-18T03:12:53.148Z,77.60
2017-10-18T03:15:21.933Z,77.50
2017-10-18T03:17:51.955Z,77.50
2017-10-18T03:20:21.460Z,77.20
2017-10-18T03:22:51.266Z,77.30
2017-10-18T03:25:20.304Z,77.30
2017-10-18T03:27:50.339Z,77.20
2017-10-18T03:30:19.279Z,77.20
2017-10-18T03:32:48.106Z,77.10
2017-10-18T03:35:17.981Z,76.80
2017-10-18T03:37:46.965Z,76.70
2017-10-18T03:40:16.106Z,76.40
2017-10-18T03:42:46.494Z,76.30
2017-10-18T03:45:15.588Z,76.30
2017-10-18T03:47:44.585Z,76.20
2017-10-18T03:50:14.125Z,76.00
2017-10-18T03:52:43.184Z,75.90
2017-10-18T03:55:12.270Z,75.90
2017-10-18T03:57:41.268Z,75.90
2017-10-18T04:00:10.157Z,75.90
2017-10-18T04:02:39.865Z,75.50
2017-10-18T04:05:09.575Z,75.50
2017-10-18T04:07:38.675Z,75.40
2017-10-18T04:10:07.563Z,75.10
2017-10-18T04:12:36.352Z,74.90
2017-10-18T04:15:06.012Z,74.60
2017-10-18T04:17:34.761Z,74.60
2017-10-18T04:20:03.640Z,74.20
2017-10-18T04:22:33.761Z,74.20
2017-10-18T04:25:02.985Z,74.00
2017-10-18T04:27:32.779Z,74.00
2017-10-18T04:30:03.113Z,73.50
2017-10-18T04:32:34.661Z,73.60
2017-10-18T04:35:09.889Z,73.70
2017-10-18T04:37:39.430Z,73.90
2017-10-18T04:40:08.182Z,74.00
2017-10-18T04:42:37.283Z,74.00
2017-10-18T04:45:06.993Z,74.10
2017-10-18T04:47:36.903Z,74.20
2017-10-18T04:50:06.309Z,74.20
2017-10-18T04:52:35.096Z,74.20
2017-10-18T04:55:03.986Z,74.20
2017-10-18T04:57:33.070Z,74.40
2017-10-18T05:00:01.869Z,74.50
2017-10-18T05:02:31.388Z,74.60
2017-10-18T05:05:00.679Z,74.40
2017-10-18T05:07:29.511Z,75.10
2017-10-18T05:09:58.523Z,74.70
2017-10-18T05:12:27.554Z,75.50
2017-10-18T05:14:56.594Z,74.90
2017-10-18T05:17:25.336Z,75.10
2017-10-18T05:19:54.017Z,75.00
2017-10-18T05:22:23.246Z,75.20
2017-10-18T05:24:52.231Z,75.50
2017-10-18T05:27:21.317Z,75.10
2017-10-18T05:29:50.200Z,75.20
2017-10-18T05:32:19.109Z,75.30
2017-10-18T05:34:48.348Z,75.20
2017-10-18T05:37:17.793Z,75.20
2017-10-18T05:39:47.852Z,75.20
2017-10-18T05:42:16.606Z,75.20
2017-10-18T05:44:45.528Z,75.20
2017-10-18T05:47:14.383Z,75.10
2017-10-18T05:49:43.277Z,75.10
2017-10-18T05:52:12.678Z,75.10
2017-10-18T05:54:42.391Z,74.80
2017-10-18T05:57:11.319Z,74.80
2017-10-18T05:59:41.004Z,75.00
2017-10-18T06:02:09.829Z,74.90
2017-10-18T06:04:38.669Z,74.70
2017-10-18T06:07:07.866Z,74.60
2017-10-18T06:09:37.475Z,75.00
2017-10-18T06:12:06.575Z,75.10
2017-10-18T06:14:35.261Z,74.80
2017-10-18T06:17:04.355Z,74.80
2017-10-18T06:19:34.336Z,74.90
2017-10-18T06:22:03.203Z,75.40
2017-10-18T06:24:32.360Z,74.80
2017-10-18T06:27:02.210Z,74.70
2017-10-18T06:29:32.128Z,75.10
2017-10-18T06:32:01.087Z,75.00
2017-10-18T06:34:30.318Z,74.90
2017-10-18T06:36:59.272Z,74.60
2017-10-18T06:39:28.190Z,74.60
2017-10-18T06:41:57.367Z,74.40
2017-10-18T06:44:26.400Z,74.30
2017-10-18T06:46:55.659Z,74.10
2017-10-18T06:49:24.957Z,74.20
2017-10-18T06:51:53.938Z,74.30
2017-10-18T06:54:23.048Z,74.30
2017-10-18T06:56:52.375Z,74.40
2017-10-18T06:59:21.173Z,74.00
2017-10-18T07:01:51.056Z,73.60
2017-10-18T07:04:20.101Z,73.60
2017-10-18T07:06:49.167Z,73.80
2017-10-18T07:09:18.335Z,73.80
2017-10-18T07:11:47.473Z,73.30
2017-10-18T07:14:17.861Z,73.50
2017-10-18T07:16:46.634Z,73.50
2017-10-18T07:19:15.905Z,73.50
2017-10-18T07:21:44.570Z,73.60
2017-10-18T07:24:13.798Z,73.60
2017-10-18T07:26:42.874Z,73.40
2017-10-18T07:29:12.026Z,73.60
2017-10-18T07:31:41.119Z,73.40
2017-10-18T07:34:10.162Z,73.80
2017-10-18T07:36:39.329Z,73.60
2017-10-18T07:39:08.222Z,73.40
2017-10-18T07:41:37.974Z,72.90
2017-10-18T07:44:07.168Z,72.70
2017-10-18T07:46:36.167Z,72.10
2017-10-18T07:49:05.896Z,72.10
2017-10-18T07:51:35.064Z,72.10
2017-10-18T07:54:04.415Z,72.00
2017-10-18T07:56:34.142Z,72.40
2017-10-18T07:59:04.623Z,72.60
2017-10-18T08:01:34.168Z,72.60
2017-10-18T08:04:03.274Z,72.90
2017-10-18T08:06:32.951Z,72.60
2017-10-18T08:09:02.709Z,71.90
2017-10-18T08:11:31.787Z,72.00
2017-10-18T08:14:01.120Z,72.60
2017-10-18T08:16:29.966Z,72.30
2017-10-18T08:18:59.276Z,72.50
2017-10-18T08:21:28.292Z,72.60
2017-10-18T08:23:57.712Z,72.80
2017-10-18T08:26:26.856Z,72.80
2017-10-18T08:28:55.892Z,72.80
2017-10-18T08:31:25.224Z,73.00
2017-10-18T08:33:54.968Z,72.90
2017-10-18T08:36:24.188Z,73.00
2017-10-18T08:38:53.361Z,72.90
2017-10-18T08:41:22.515Z,72.80
2017-10-18T08:43:53.778Z,72.00
2017-10-18T08:46:22.765Z,72.00
2017-10-18T08:48:52.651Z,71.20
2017-10-18T08:51:21.934Z,71.10
2017-10-18T08:53:51.174Z,71.80
2017-10-18T08:56:20.278Z,72.30
2017-10-18T08:58:49.194Z,72.50
2017-10-18T09:01:18.199Z,71.50
2017-10-18T09:03:47.394Z,71.70
2017-10-18T09:06:16.250Z,71.30
2017-10-18T09:08:45.332Z,71.60
2017-10-18T09:11:15.527Z,70.90
2017-10-18T09:13:45.940Z,71.10
2017-10-18T09:16:16.427Z,72.00
2017-10-18T09:18:46.426Z,71.70
2017-10-18T09:21:16.265Z,71.30
2017-10-18T09:23:45.187Z,71.30
2017-10-18T09:26:14.067Z,71.20
2017-10-18T09:28:45.556Z,70.60
2017-10-18T09:31:15.922Z,71.00
2017-10-18T09:33:46.136Z,71.50
2017-10-18T09:36:15.017Z,71.10
2017-10-18T09:38:44.030Z,70.60
2017-10-18T09:41:15.057Z,70.50
2017-10-18T09:43:45.228Z,70.80
2017-10-18T09:46:14.366Z,71.20
2017-10-18T09:48:44.602Z,71.20
2017-10-18T09:51:13.495Z,70.10
2017-10-18T09:53:42.367Z,69.90
2017-10-18T09:56:12.870Z,68.90
2017-10-18T09:58:42.698Z,68.90
2017-10-18T10:01:12.404Z,69.70
2017-10-18T10:03:43.410Z,70.40
2017-10-18T10:06:19.974Z,70.00
2017-10-18T10:08:49.103Z,70.80
2017-10-18T10:11:18.442Z,71.40
2017-10-18T10:13:47.918Z,70.90
2017-10-18T10:16:16.931Z,70.00
2017-10-18T10:18:46.769Z,71.20
2017-10-18T10:21:15.851Z,71.20
2017-10-18T10:23:45.800Z,71.30
2017-10-18T10:26:15.900Z,70.70
2017-10-18T10:28:45.530Z,70.50
2017-10-18T10:31:14.570Z,68.60
2017-10-18T10:33:45.569Z,69.80
2017-10-18T10:36:15.215Z,69.70
2017-10-18T10:38:44.154Z,70.20
2017-10-18T10:41:14.618Z,68.50
2017-10-18T10:43:43.691Z,70.20
2017-10-18T10:46:13.836Z,71.20
2017-10-18T10:48:43.600Z,72.70
2017-10-18T10:51:13.305Z,71.90
2017-10-18T10:53:42.267Z,71.90
2017-10-18T10:56:12.361Z,71.30
2017-10-18T10:58:42.575Z,72.20
2017-10-18T11:01:12.606Z,72.80
2017-10-18T11:03:43.810Z,72.60
2017-10-18T11:06:13.241Z,72.50
2017-10-18T11:08:43.152Z,72.50
2017-10-18T11:11:12.044Z,73.00
2017-10-18T11:13:41.046Z,72.80
2017-10-18T11:16:11.062Z,71.40
2017-10-18T11:18:41.176Z,70.90
2017-10-18T11:21:11.070Z,70.90
2017-10-18T11:23:40.039Z,70.60
2017-10-18T11:26:10.098Z,70.00
2017-10-18T11:28:39.258Z,70.00
2017-10-18T11:31:08.607Z,70.60
2017-10-18T11:33:37.690Z,68.70
2017-10-18T11:36:07.092Z,69.60
2017-10-18T11:38:36.800Z,70.30
2017-10-18T11:41:06.035Z,70.20
2017-10-18T11:43:36.231Z,70.70
2017-10-18T11:46:05.942Z,71.40
2017-10-18T11:48:35.319Z,71.20
2017-10-18T11:51:04.969Z,70.80
2017-10-18T11:53:34.626Z,70.70
2017-10-18T11:56:03.460Z,71.80
2017-10-18T11:58:33.676Z,72.60
2017-10-18T12:01:03.147Z,72.90
2017-10-18T12:03:33.781Z,73.30
2017-10-18T12:06:03.445Z,72.00
2017-10-18T12:08:32.719Z,71.50
2017-10-18T12:11:02.626Z,71.00
2017-10-18T12:13:31.463Z,71.70
2017-10-18T12:16:01.032Z,72.60
2017-10-18T12:18:30.711Z,73.00
2017-10-18T12:21:00.506Z,73.00
2017-10-18T12:23:30.299Z,71.90
2017-10-18T12:26:00.528Z,72.40
2017-10-18T12:28:29.585Z,72.40
2017-10-18T12:30:58.477Z,71.60
2017-10-18T12:33:27.361Z,70.00
2017-10-18T12:35:57.070Z,70.40
2017-10-18T12:38:26.277Z,70.40
2017-10-18T12:40:55.615Z,70.20
2017-10-18T12:43:24.560Z,71.50
2017-10-18T12:45:54.749Z,70.50
2017-10-18T12:48:23.574Z,72.40
2017-10-18T12:50:53.549Z,73.70
2017-10-18T12:53:22.707Z,73.60
2017-10-18T12:55:52.198Z,71.80
2017-10-18T12:58:21.011Z,72.70
2017-10-18T13:00:49.973Z,73.80
2017-10-18T13:03:19.480Z,74.70
2017-10-18T13:05:48.798Z,75.70
2017-10-18T13:08:18.133Z,74.70
2017-10-18T13:10:47.380Z,74.40
2017-10-18T13:13:16.644Z,75.80
2017-10-18T13:15:46.497Z,77.00
2017-10-18T13:18:16.696Z,77.00
2017-10-18T13:20:45.916Z,76.30
2017-10-18T13:23:14.903Z,75.60
2017-10-18T13:25:44.942Z,74.10
2017-10-18T13:28:13.738Z,74.10
2017-10-18T13:30:44.308Z,73.60
2017-10-18T13:33:13.537Z,73.60
2017-10-18T13:35:42.426Z,74.60
2017-10-18T13:38:11.282Z,73.30
2017-10-18T13:40:41.232Z,73.40
2017-10-18T13:43:11.405Z,73.60
2017-10-18T13:45:41.133Z,74.60
2017-10-18T13:48:12.254Z,75.50
2017-10-18T13:50:41.629Z,75.50
2017-10-18T13:53:11.278Z,75.70
2017-10-18T13:55:41.696Z,75.50
2017-10-18T13:58:12.332Z,75.20
2017-10-18T14:00:43.019Z,75.20
2017-10-18T14:03:12.553Z,74.90
2017-10-18T14:05:41.960Z,74.20
2017-10-18T14:08:11.778Z,73.80
2017-10-18T14:10:40.987Z,73.80
2017-10-18T14:13:12.110Z,74.90
2017-10-18T14:15:41.179Z,74.80
2017-10-18T14:18:11.138Z,76.00
2017-10-18T14:20:42.029Z,76.80
2017-10-18T14:23:11.990Z,77.00
2017-10-18T14:25:42.272Z,77.20
2017-10-18T14:28:12.222Z,77.10
2017-10-18T14:30:42.106Z,76.50
2017-10-18T14:33:11.205Z,76.40
2017-10-18T14:35:41.373Z,75.90
2017-10-18T14:38:10.870Z,74.90
2017-10-18T14:40:39.824Z,74.90
2017-10-18T14:43:08.806Z,74.70
2017-10-18T14:45:38.926Z,75.10
2017-10-18T14:48:08.028Z,75.70
2017-10-18T14:50:37.914Z,76.10
2017-10-18T14:53:07.965Z,76.50
2017-10-18T14:55:36.768Z,76.50
2017-10-18T14:58:05.634Z,77.00
2017-10-18T15:00:35.656Z,77.90
2017-10-18T15:03:07.823Z,78.30
2017-10-18T15:05:38.211Z,78.50
2017-10-18T15:08:09.478Z,78.10
2017-10-18T15:10:39.021Z,78.10
2017-10-18T15:13:07.829Z,77.00
2017-10-18T15:15:36.668Z,78.20
2017-10-18T15:18:05.353Z,78.70
2017-10-18T15:20:34.076Z,78.30
2017-10-18T15:23:02.946Z,77.50
2017-10-18T15:25:31.996Z,78.30
2017-10-18T15:28:02.102Z,79.10
2017-10-18T15:30:32.480Z,79.10
2017-10-18T15:33:01.899Z,79.20
2017-10-18T15:35:31.821Z,80.30
2017-10-18T15:38:02.445Z,80.20
2017-10-18T15:40:32.157Z,80.20
2017-10-18T15:43:01.342Z,80.80
2017-10-18T15:45:32.237Z,80.60
2017-10-18T15:48:03.193Z,80.60
2017-10-18T15:50:33.338Z,81.70
2017-10-18T15:53:03.612Z,82.10
2017-10-18T15:55:34.370Z,80.80
2017-10-18T15:58:03.391Z,81.50
2017-10-18T16:00:33.341Z,81.50
2017-10-18T16:03:03.538Z,82.30
2017-10-18T16:05:32.594Z,82.30
2017-10-18T16:08:01.866Z,82.60
2017-10-18T16:10:31.909Z,83.00
2017-10-18T16:13:02.722Z,82.90
2017-10-18T16:15:35.147Z,83.60
2017-10-18T16:18:04.877Z,83.00
2017-10-18T16:20:35.108Z,82.60
2017-10-18T16:23:05.209Z,80.70
2017-10-18T16:25:35.182Z,76.90
2017-10-18T16:28:04.117Z,76.90
2017-10-18T16:30:33.223Z,77.20
2017-10-18T16:33:03.513Z,77.30
2017-10-18T16:35:32.431Z,79.20
2017-10-18T16:38:02.472Z,81.40
2017-10-18T16:40:32.494Z,83.10
2017-10-18T16:43:02.446Z,83.30
2017-10-18T16:45:31.520Z,83.20
2017-10-18T16:48:00.842Z,83.60
2017-10-18T16:50:29.886Z,84.10
2017-10-18T16:52:59.777Z,84.00
2017-10-18T16:55:29.323Z,82.90
2017-10-18T16:57:59.381Z,84.00
2017-10-18T17:00:29.521Z,84.90
2017-10-18T17:02:58.701Z,83.50
2017-10-18T17:05:28.127Z,82.50
2017-10-18T17:07:57.282Z,83.40
2017-10-18T17:10:26.538Z,84.10
2017-10-18T17:12:56.499Z,78.00
2017-10-18T17:15:25.571Z,80.60
2017-10-18T17:17:55.230Z,79.10
2017-10-18T17:20:24.115Z,75.00
2017-10-18T17:22:53.704Z,82.60
2017-10-18T17:25:23.053Z,88.80
2017-10-18T17:27:52.251Z,87.90
2017-10-18T17:30:21.605Z,89.40
2017-10-18T17:32:50.755Z,89.30
2017-10-18T17:35:20.655Z,87.90
2017-10-18T17:37:49.776Z,87.40
2017-10-18T17:40:19.177Z,86.50
2017-10-18T17:42:48.670Z,87.10
2017-10-18T17:45:18.071Z,87.50
2017-10-18T17:47:48.185Z,86.90
2017-10-18T17:50:17.703Z,86.50
2017-10-18T17:52:46.408Z,86.50
2017-10-18T17:55:16.297Z,86.50
2017-10-18T17:57:45.692Z,86.40
2017-10-18T18:00:14.586Z,85.90
2017-10-18T18:02:46.962Z,85.40
2017-10-18T18:05:15.947Z,86.20
2017-10-18T18:07:44.842Z,87.40
2017-10-18T18:10:22.250Z,89.00
2017-10-18T18:12:55.471Z,89.30
2017-10-18T18:15:24.523Z,88.80
2017-10-18T18:17:53.576Z,88.70
2017-10-18T18:20:22.844Z,90.30
2017-10-18T18:22:51.707Z,90.90
2017-10-18T18:25:21.157Z,91.00
2017-10-18T18:27:50.002Z,90.70
2017-10-18T18:30:18.994Z,90.70
2017-10-18T18:32:48.091Z,90.30
2017-10-18T18:35:17.437Z,90.60
2017-10-18T18:37:48.124Z,90.50
2017-10-18T18:40:17.218Z,90.50
2017-10-18T18:42:47.732Z,90.90
2017-10-18T18:45:17.265Z,90.90
2017-10-18T18:47:47.798Z,89.30
2017-10-18T18:50:18.210Z,89.20
2017-10-18T18:52:48.020Z,91.00
2017-10-18T18:55:17.645Z,90.50
2017-10-18T18:57:46.734Z,89.50
2017-10-18T19:00:18.687Z,90.70
2017-10-18T19:02:52.961Z,91.40
2017-10-18T19:05:22.351Z,90.40
2017-10-18T19:07:51.731Z,91.30
2017-10-18T19:10:20.786Z,91.50
2017-10-18T19:12:50.629Z,90.70
2017-10-18T19:15:21.534Z,91.30
2017-10-18T19:17:50.596Z,91.30
2017-10-18T19:20:19.860Z,91.60
2017-10-18T19:22:49.025Z,91.50
2017-10-18T19:25:18.647Z,91.60
2017-10-18T19:27:47.656Z,91.50
2017-10-18T19:30:18.393Z,90.50
2017-10-18T19:32:49.430Z,91.00
2017-10-18T19:35:20.698Z,91.00
2017-10-18T19:37:57.027Z,91.20
2017-10-18T19:40:28.241Z,90.70
2017-10-18T19:42:57.981Z,90.60
2017-10-18T19:45:27.758Z,90.20
2017-10-18T19:47:57.009Z,90.20
2017-10-18T19:50:25.798Z,90.30
2017-10-18T19:52:56.735Z,89.50
2017-10-18T19:55:29.705Z,89.20
2017-10-18T19:58:00.935Z,90.80
2017-10-18T20:00:35.369Z,90.70
2017-10-18T20:03:14.554Z,90.20
2017-10-18T20:05:46.793Z,90.50
2017-10-18T20:08:31.141Z,90.60
2017-10-18T20:11:11.292Z,88.90
2017-10-18T20:13:40.298Z,90.40
2017-10-18T20:16:21.043Z,90.00
2017-10-18T20:18:52.208Z,90.20
2017-10-18T20:21:37.053Z,90.10
2017-10-18T20:24:06.905Z,90.10
2017-10-18T20:26:36.712Z,88.00
2017-10-18T20:29:17.654Z,87.80
2017-10-18T20:32:01.175Z,88.70
2017-10-18T20:34:32.115Z,88.70
2017-10-18T20:37:03.184Z,88.70
2017-10-18T20:39:34.172Z,89.10
2017-10-18T20:42:05.291Z,89.50
2017-10-18T20:44:41.341Z,89.30
2017-10-18T20:47:11.837Z,89.30
2017-10-18T20:49:40.891Z,88.90
2017-10-18T20:52:09.838Z,90.00
2017-10-18T20:54:40.467Z,88.80
2017-10-18T20:57:09.267Z,88.10
2017-10-18T20:59:39.177Z,88.30
2017-10-18T21:02:08.179Z,88.30
2017-10-18T21:04:37.275Z,87.90
2017-10-18T21:07:07.409Z,88.70
2017-10-18T21:09:46.905Z,89.70
2017-10-18T21:12:28.375Z,88.90
2017-10-18T21:15:00.939Z,88.00
2017-10-18T21:17:31.782Z,87.70
2017-10-18T21:20:00.854Z,87.30
2017-10-18T21:22:30.962Z,87.60
2017-10-18T21:24:59.943Z,87.70
2017-10-18T21:27:30.060Z,88.50
2017-10-18T21:29:59.301Z,88.50
2017-10-18T21:32:31.182Z,87.60
2017-10-18T21:35:00.357Z,87.60
2017-10-18T21:37:30.094Z,87.80
2017-10-18T21:39:58.915Z,87.20
2017-10-18T21:42:27.669Z,87.70
2017-10-18T21:44:56.824Z,87.60
2017-10-18T21:47:26.211Z,89.10
2017-10-18T21:49:55.735Z,91.40
2017-10-18T21:52:25.266Z,92.80
2017-10-18T21:54:54.334Z,93.60
2017-10-18T21:57:23.335Z,93.50
2017-10-18T21:59:52.619Z,93.90
2017-10-18T22:02:21.809Z,93.50
2017-10-18T22:04:50.707Z,93.20
2017-10-18T22:07:19.817Z,93.10
2017-10-18T22:09:49.404Z,93.30
2017-10-18T22:12:18.894Z,93.70
2017-10-18T22:14:48.851Z,93.40
2017-10-18T22:17:17.813Z,93.70
2017-10-18T22:19:48.158Z,93.30
2017-10-18T22:22:18.319Z,93.20
2017-10-18T22:24:47.114Z,93.20
2017-10-18T22:27:16.965Z,93.80
2017-10-18T22:29:45.859Z,93.80
2017-10-18T22:32:14.966Z,93.50
2017-10-18T22:34:44.619Z,93.60
2017-10-18T22:37:14.040Z,93.60
2017-10-18T22:39:43.820Z,93.40
2017-10-18T22:42:12.694Z,93.40
2017-10-18T22:44:42.351Z,93.40
2017-10-18T22:47:12.355Z,93.40
2017-10-18T22:49:42.483Z,93.30
2017-10-18T22:52:11.595Z,93.30
2017-10-18T22:54:40.709Z,93.20
2017-10-18T22:57:09.440Z,92.90
2017-10-18T22:59:39.251Z,93.10
2017-10-18T23:02:09.098Z,93.00
2017-10-18T23:04:38.016Z,93.00
2017-10-18T23:07:07.191Z,93.20
2017-10-18T23:09:37.115Z,93.50
2017-10-18T23:12:07.035Z,93.50
2017-10-18T23:14:35.931Z,93.40
2017-10-18T23:17:05.015Z,93.20
2017-10-18T23:19:35.994Z,93.20
2017-10-18T23:22:07.111Z,93.30
2017-10-18T23:24:36.616Z,93.30
2017-10-18T23:27:05.914Z,93.10
2017-10-18T23:29:35.212Z,93.10
2017-10-18T23:32:04.102Z,93.50
2017-10-18T23:34:33.583Z,92.90
2017-10-18T23:37:03.116Z,92.80
2017-10-18T23:39:32.312Z,92.70
2017-10-18T23:42:01.198Z,92.60
2017-10-18T23:44:30.551Z,92.80
2017-10-18T23:46:59.293Z,93.00
2017-10-18T23:49:28.082Z,92.90
2017-10-18T23:51:57.626Z,93.00
2017-10-18T23:54:26.486Z,93.10
2017-10-18T23:56:55.677Z,92.90
2017-10-18T23:59:24.567Z,92.80
